Welcome to our Virtual Airline
Sign-in:

Flight MFC38591

  • Submitted By: Igor Doksas
  • Departure Airport: Horsfeld (4Z5)
  • Arrival Airport: Glacier Creek (KGZ)
  • Aircraft: DHC2 BEAVERF (N001MM-FL)
  • Flight Time: 00.51.10
  • Date Submitted: 2019/01/09
  • Route: STOP-OVER AT BEAVER CREEK (CYXQ)STOP-OVER AT BEAVER CREEK (CYXQ)
  • Status: Accepted
Flight Details
Gross Revenue:
(5 load / $ 96.00 per unit
$ 480.00
Fuel Cost:
(65.3173 fuel used @ 5.1 / unit)
$ 333.12

Additional Log Information:

View Log

FS[10:22] ----- Flight Opened -----
FS[10:22] Cigar Box - 1.1.4.0
FS[10:22] FS: FSX
FS[10:22] FSUIPC: v4.966
FS[10:22] Flight Number: MFC38591
FS[10:22] FS Aircraft: DHC-2A Misty Moorings 3 Amph1
FS[10:22] FS Model: DHC2
FS[10:22] FS Type: DeHavilland
FS[10:22] Departure: 4Z5
FS[10:22] Arrival: KGZ
FS[10:22] Flight Level: 8500
FS[10:22] Flight Type: H
FS[10:22] Passengers: 5
FS[10:22] FOB: 205 lbs
FS[10:22] Gate: n/a
FS[10:22] Crash Detection: Disabled
FS[10:22] Crash Detection Aircraft: Disabled
FS[10:22] Engines: 1 Piston
FS[10:22] NOTE: Boarding has started
FS[10:22] Parking Brake: Engaged
FS[10:22] Engine 1: Started
FS[10:22] Light Data: Navigation ON
FS[10:22] Light Data: Beacon ON
FS[10:22] Light Data: Landing lights ON
FS[10:22] Main Door Closed
FS[10:22] COM1: 128.30
FS[10:22] COM2: 127.80
FS[10:22] Transponder: 1200
FS[10:22] NAV1: 113.70
FS[10:22] NAV2: 110.60
FS[10:22] ADF1: 284.0
FS[10:22] ADF2: 240.0
FS[10:22] Navigation Mode: GPS
FS[10:22] Navigation Mode: GPS
FS[10:22] Parking Brake: Released
FS[10:22] NOTE: Taxi started
FS[10:23] NOTE: ----- TAKE OFF -----
FS[10:23] GS: 54 knots
FS[10:23] TAS: 54 knots
FS[10:23] IAS: 52 knots
FS[10:23] VS: -159 fpm
FS[10:23] FOB: 205 lbs
FS[10:23] Heading: 96°
FS[10:23] Pitch: 0°
FS[10:23] Bank: 0°
FS[10:23] Aircraft Weight: 3975.06 lbs
FS[10:23] Nearest Airport: 4Z5
FS[10:23] Distance: 0.40 miles
FS[10:23] Runway: ???
FS[10:23] Ground Surface: Forest
FS[10:23] Ground Condition: Snow
FS[10:23] NOTE: Weather Report
FS[10:23] Wind Heading: 333°
FS[10:23] Wind Speed: 1 knots
FS[10:23] OAT: 7° C
FS[10:23] TAT: 8° C
FS[10:23] Precipitation: None
FS[10:23] Dew Point: -2° C
FS[10:23] Visibility: 62 miles
FS[10:23] METAR: No METAR available for 4Z5.
FS[10:23] NOTE: Climb started
FS[10:23] Landing Gear: Retracted
FS[10:23] GS: 69 knots
FS[10:23] TAS: 70 knots
FS[10:23] IAS: 66 knots
FS[10:23] VS: 233 fpm
FS[10:23] AGL: 33 ft
FS[10:23] AMSL: 3553 ft
FS[10:23] Flaps: Position 1
FS[10:23] GS: 71 knots
FS[10:23] TAS: 72 knots
FS[10:23] IAS: 68 knots
FS[10:23] VS: 603 fpm
FS[10:23] Autopilot: Engaged
FS[10:23] AGL: 161 ft
FS[10:23] AMSL: 3661 ft
FS[10:23] View Mode: Virtual Cockpit
FS[10:23] Flaps: Position 0
FS[10:23] GS: 83 knots
FS[10:23] TAS: 82 knots
FS[10:23] IAS: 78 knots
FS[10:23] VS: 1028 fpm
FS[10:28] NOTE: TOC reached
FS[10:28] NOTE: TOC reached
FS[10:28] NOTE: Cruise started
FS[10:28] GS: 136 knots
FS[10:28] TAS: 124 knots
FS[10:28] IAS: 110 knots
FS[10:28] VS: 192 fpm
FS[10:28] FOB: 182 lbs
FS[10:28] Heading: 122°
FS[10:28] Pitch: 1°
FS[10:28] Bank: 0°
FS[10:28] Aircraft Weight: 3952.83 lbs
FS[10:28] NOTE: Cruise started
FS[10:28] GS: 136 knots
FS[10:28] TAS: 124 knots
FS[10:28] IAS: 110 knots
FS[10:28] VS: 188 fpm
FS[10:28] FOB: 182 lbs
FS[10:28] Heading: 122°
FS[10:28] Pitch: 1°
FS[10:28] Bank: 0°
FS[10:28] Aircraft Weight: 3952.83 lbs
FS[10:31] Recovery: Flight Saved
FS[10:31] FS: Paused
FS[10:31] FS: Unpaused
FS[10:32] NOTE: TOD reached
FS[10:32] NOTE: Descent started
FS[10:32] GS: 110 knots
FS[10:32] TAS: 131 knots
FS[10:32] IAS: 117 knots
FS[10:32] VS: -780 fpm
FS[10:32] FOB: 172 lbs
FS[10:32] Heading: 251°
FS[10:32] Pitch: 2°
FS[10:32] Bank: 0°
FS[10:32] Aircraft Weight: 3942.65 lbs
FS[10:32] NOTE: On approach
FS[10:34] FS: Paused
FS[10:34] FS: Unpaused
FS[10:36] Flaps: Position 1
FS[10:36] GS: 93 knots
FS[10:36] TAS: 111 knots
FS[10:36] IAS: 101 knots
FS[10:36] VS: -773 fpm
FS[10:36] Flaps: Position 2
FS[10:36] GS: 83 knots
FS[10:36] TAS: 101 knots
FS[10:36] IAS: 92 knots
FS[10:36] VS: 14 fpm
FS[10:36] Flaps: Position 3
FS[10:36] GS: 64 knots
FS[10:36] TAS: 81 knots
FS[10:36] IAS: 74 knots
FS[10:36] VS: 100 fpm
FS[10:37] Landing Gear: Extended
FS[10:37] GS: 62 knots
FS[10:37] TAS: 66 knots
FS[10:37] IAS: 62 knots
FS[10:37] VS: -869 fpm
FS[10:37] AGL: 594 ft
FS[10:37] AMSL: 4347 ft
FS[10:38] Autopilot: Disengaged
FS[10:38] AGL: 151 ft
FS[10:38] AMSL: 3730 ft
FS[10:39] NOTE: ----- LANDED -----
FS[10:39] Landing Rate: -172.24 fpm
FS[10:39] GS: 58 knots
FS[10:39] TAS: 60 knots
FS[10:39] IAS: 56 knots
FS[10:39] VS: -171 fpm
FS[10:39] FOB: 161 lbs
FS[10:39] Heading: 248°
FS[10:39] Pitch: 0°
FS[10:39] Bank: 0°
FS[10:39] Aircraft Weight: 3931.38 lbs
FS[10:39] Nearest Airport: RKLK
FS[10:39] Distance: 3.04 miles
FS[10:39] Runway: ???
FS[10:39] Ground Surface: Urban
FS[10:39] Ground Condition: Snow
FS[10:39] NOTE: Weather Report
FS[10:39] Wind Heading: 331°
FS[10:39] Wind Speed: 1 knots
FS[10:39] OAT: 7° C
FS[10:39] TAT: 8° C
FS[10:39] Precipitation: None
FS[10:39] Dew Point: -2° C
FS[10:39] Visibility: 62 miles
FS[10:39] METAR: KGZH 091353Z AUTO 34008G18KT 10SM CLR 09/01 A3031 RMK AO2 SLP263 T00940011KGZL 091415Z AUTO 00000KT 10SM CLR M01/M06 A3057 RMK AO2KGZN 091400Z AUTO 32003KT 10SM CLR 04/M01 A3056 RMK AO2KGZS 091415Z AUTO 33009G14KT 10SM CLR 05/M04 A3031 RMK A01
FS[10:39] View Mode: Virtual Cockpit
FS[10:39] NOTE: Taxi started
FS[10:39] NOTE: Arrived
FS[10:39] Parking Brake: Engaged
FS[10:39] Flaps: Position 2
FS[10:40] Parking Brake: Released
FS[10:40] Landing Gear: Retracted
FS[10:40] GS: 77 knots
FS[10:40] TAS: 78 knots
FS[10:40] IAS: 74 knots
FS[10:40] VS: 583 fpm
FS[10:40] AGL: 39 ft
FS[10:40] AMSL: 3618 ft
FS[10:40] Flaps: Position 1
FS[10:40] GS: 77 knots
FS[10:40] TAS: 79 knots
FS[10:40] IAS: 75 knots
FS[10:40] VS: 909 fpm
FS[10:40] Autopilot: Engaged
FS[10:40] AGL: 125 ft
FS[10:40] AMSL: 3704 ft
FS[10:40] View Mode: Virtual Cockpit
FS[10:40] Flaps: Position 0
FS[10:40] GS: 85 knots
FS[10:40] TAS: 88 knots
FS[10:40] IAS: 83 knots
FS[10:40] VS: 1101 fpm
FS[10:43] Recovery: Flight Saved
FS[10:51] Recovery: Flight Saved
FS[10:59] Recovery: Flight Saved
FS[11:05] FS: Paused
FS[11:05] FS: Unpaused
FS[11:05] Recovery: Flight Saved
FS[11:09] Flaps: Position 1
FS[11:09] GS: 108 knots
FS[11:09] TAS: 108 knots
FS[11:09] IAS: 102 knots
FS[11:09] VS: -790 fpm
FS[11:10] Flaps: Position 2
FS[11:10] GS: 95 knots
FS[11:10] TAS: 95 knots
FS[11:10] IAS: 89 knots
FS[11:10] VS: -199 fpm
FS[11:10] Flaps: Position 3
FS[11:10] GS: 83 knots
FS[11:10] TAS: 82 knots
FS[11:10] IAS: 77 knots
FS[11:10] VS: -345 fpm
FS[11:10] Landing Gear: Extended
FS[11:10] GS: 68 knots
FS[11:10] TAS: 68 knots
FS[11:10] IAS: 64 knots
FS[11:10] VS: -706 fpm
FS[11:10] AGL: 1365 ft
FS[11:10] AMSL: 3871 ft
FS[11:12] Autopilot: Disengaged
FS[11:12] AGL: 36 ft
FS[11:12] AMSL: 2322 ft
FS[11:12] NOTE: ----- LANDED -----
FS[11:12] Landing Rate: -417.54 fpm
FS[11:12] GS: 58 knots
FS[11:12] TAS: 59 knots
FS[11:12] IAS: 57 knots
FS[11:12] VS: -296 fpm
FS[11:12] FOB: 62 lbs
FS[11:12] Heading: 190°
FS[11:12] Pitch: 1°
FS[11:12] Bank: 0°
FS[11:12] Aircraft Weight: 3832.36 lbs
FS[11:12] Nearest Airport: KGZ
FS[11:12] Distance: 0.60 miles
FS[11:12] Runway: ???
FS[11:12] Ground Surface: Urban
FS[11:12] Ground Condition: Snow
FS[11:12] NOTE: Weather Report
FS[11:12] Wind Heading: 341°
FS[11:12] Wind Speed: 0 knots
FS[11:12] OAT: 10° C
FS[11:12] TAT: 10° C
FS[11:12] Precipitation: None
FS[11:12] Dew Point: 0° C
FS[11:12] Visibility: 62 miles
FS[11:12] METAR: KGZH 091353Z AUTO 34008G18KT 10SM CLR 09/01 A3031 RMK AO2 SLP263 T00940011KGZL 091415Z AUTO 00000KT 10SM CLR M01/M06 A3057 RMK AO2KGZN 091400Z AUTO 32003KT 10SM CLR 04/M01 A3056 RMK AO2KGZS 091415Z AUTO 33009G14KT 10SM CLR 05/M04 A3031 RMK A01
FS[11:12] View Mode: Virtual Cockpit
FS[11:13] Flaps: Position 0
FS[11:14] Parking Brake: Engaged
FS[11:14] Light Data: Landing lights OFF
FS[11:14] Light Data: Navigation OFF
FS[11:14] Engine 1: Stopped
FS[11:14] Light Data: Beacon OFF
FS[11:14] Main Door Open
FS[11:14] Gate: n/a
FS[11:14] NOTE: Flight Completed
FS[11:14] FS Aircraft: DHC-2A Misty Moorings 3 Amph1
FS[11:14] FS Model: DHC2
FS[11:14] FS Type: DeHavilland
FS[11:14] FOB: 62 lbs
FS[11:14] Fuel Used: 144 lbs
FS[11:14] Flight Time: 00:51:10
FS[11:14] Flight Time (Dawn): 00:00:00
FS[11:14] Flight Time (Day): 00:51:10
FS[11:14] Flight Time (Dusk): 00:00:00
FS[11:14] Flight Time (Night): 00:00:00
FS[11:14] Total Landings: 2
FS[11:14] MaxSim Rate: 0x
FS[11:14] Cigar Box - 1.1.4.0
FS[11:14] ----- Flight Closed -----

Route Map